createdAt,value
2024-01-28T00:00:12.262Z,0.4
2024-01-28T00:02:07.280Z,0.3
2024-01-28T00:04:12.651Z,0.2
2024-01-28T00:08:12.556Z,0.2
2024-01-28T00:16:07.147Z,0.3
2024-01-28T00:22:57.877Z,0.2
2024-01-28T00:24:58.433Z,0.2
2024-01-28T00:26:57.750Z,0.2
2024-01-28T00:28:57.505Z,0.3
2024-01-28T00:30:57.744Z,0.2
2024-01-28T00:32:57.783Z,0.3
2024-01-28T00:34:57.548Z,0.4
2024-01-28T00:36:57.712Z,0.3
2024-01-28T00:38:58.199Z,0.5
2024-01-28T00:40:57.475Z,0.5
2024-01-28T00:42:57.723Z,0.5
2024-01-28T00:46:57.501Z,0.5
2024-01-28T00:48:58.267Z,0.4
2024-01-28T00:50:58.836Z,0.6
2024-01-28T00:52:58.232Z,0.4
2024-01-28T00:54:57.712Z,0.6
2024-01-28T00:56:57.762Z,0.6
2024-01-28T01:00:57.880Z,0.5
2024-01-28T01:02:57.740Z,0.5
2024-01-28T01:04:57.497Z,0.5
2024-01-28T01:06:58.215Z,0.6
2024-01-28T01:08:57.735Z,0.5
2024-01-28T01:10:57.492Z,0.4
2024-01-28T01:12:57.693Z,0.2
2024-01-28T01:14:57.750Z,0.1
2024-01-28T01:16:57.958Z,0.2
2024-01-28T01:18:57.737Z,0.4
2024-01-28T01:20:57.759Z,0.4
2024-01-28T01:22:57.953Z,0.4
2024-01-28T01:24:57.708Z,0.2
2024-01-28T01:26:58.284Z,0.3
2024-01-28T01:28:57.480Z,0.2
2024-01-28T01:30:57.747Z,0.4
2024-01-28T01:32:57.761Z,0.2
2024-01-28T01:34:57.603Z,0.2
2024-01-28T01:36:58.454Z,0.4
2024-01-28T01:38:58.139Z,0.2
2024-01-28T01:42:57.702Z,0.1
2024-01-28T01:44:57.755Z,0
2024-01-28T01:46:58.249Z,-0.1
2024-01-28T01:48:57.772Z,-0.2
2024-01-28T01:50:58.493Z,-0.4
2024-01-28T01:52:57.950Z,-0.3
2024-01-28T01:54:58.068Z,-0.3
2024-01-28T01:56:57.735Z,-0.2
2024-01-28T01:58:57.486Z,-0.2
2024-01-28T02:00:57.759Z,-0.2
2024-01-28T02:02:57.771Z,-0.2
2024-01-28T02:08:57.742Z,-0.2
2024-01-28T02:10:57.491Z,-0.3
2024-01-28T02:12:57.710Z,-0.4
2024-01-28T02:14:58.543Z,-0.3
2024-01-28T02:16:57.489Z,-0.3
2024-01-28T02:22:57.520Z,-0.4
2024-01-28T02:24:57.716Z,-0.3
2024-01-28T02:26:57.750Z,-0.4
2024-01-28T02:28:57.494Z,-0.4
2024-01-28T02:30:57.788Z,-0.7
2024-01-28T02:32:58.547Z,-0.4
2024-01-28T02:34:57.521Z,-0.5
2024-01-28T02:36:57.961Z,-0.6
2024-01-28T02:38:58.188Z,-0.7
2024-01-28T02:40:57.515Z,-0.7
2024-01-28T02:42:57.715Z,-0.7
2024-01-28T02:44:58.147Z,-0.7
2024-01-28T02:46:57.514Z,-0.8
2024-01-28T02:48:58.520Z,-0.9
2024-01-28T02:52:57.480Z,-0.9
2024-01-28T02:54:58.446Z,-1
2024-01-28T02:56:58.110Z,-1.1
2024-01-28T03:00:57.849Z,-1
2024-01-28T03:02:57.752Z,-1
2024-01-28T03:04:57.519Z,-1.1
2024-01-28T03:06:57.805Z,-1
2024-01-28T03:08:57.722Z,-1
2024-01-28T03:10:57.499Z,-1.2
2024-01-28T03:12:58.208Z,-1.1
2024-01-28T03:14:57.728Z,-1.1
2024-01-28T03:16:57.498Z,-1.1
2024-01-28T03:18:58.175Z,-1.3
2024-01-28T03:20:57.752Z,-1.1
2024-01-28T03:22:57.500Z,-1.3
2024-01-28T03:24:57.704Z,-1.2
2024-01-28T03:26:57.746Z,-1.3
2024-01-28T03:28:57.958Z,-1.4
2024-01-28T03:30:58.104Z,-1.4
2024-01-28T03:32:57.809Z,-1.4
2024-01-28T03:34:57.808Z,-1.3
2024-01-28T03:36:57.817Z,-1.5
2024-01-28T03:38:57.915Z,-1.4
2024-01-28T03:40:57.519Z,-1.4
2024-01-28T03:42:57.707Z,-1.5
2024-01-28T03:44:57.784Z,-1.5
2024-01-28T03:46:57.497Z,-1.6
2024-01-28T03:48:57.918Z,-1.5
2024-01-28T03:50:58.489Z,-1.6
2024-01-28T03:52:57.935Z,-1.6
2024-01-28T03:54:58.419Z,-1.6
2024-01-28T03:56:58.108Z,-1.6
2024-01-28T03:58:57.501Z,-1.9
2024-01-28T04:00:58.272Z,-1.7
2024-01-28T04:02:57.811Z,-1.6
2024-01-28T04:04:57.640Z,-1.8
2024-01-28T04:08:57.786Z,-2
2024-01-28T04:10:57.534Z,-1.9
2024-01-28T04:12:57.712Z,-1.7
2024-01-28T04:14:57.749Z,-1.8
2024-01-28T04:16:57.856Z,-1.9
2024-01-28T04:18:57.816Z,-1.7
2024-01-28T04:20:58.184Z,-1.6
2024-01-28T04:22:57.556Z,-1.7
2024-01-28T04:24:57.754Z,-1.6
2024-01-28T04:26:57.825Z,-1.8
2024-01-28T04:28:57.507Z,-1.7
2024-01-28T04:30:57.762Z,-1.6
2024-01-28T04:32:57.810Z,-1.8
2024-01-28T04:34:57.568Z,-2
2024-01-28T04:36:58.447Z,-2
2024-01-28T04:38:58.517Z,-2.1
2024-01-28T04:40:57.539Z,-1.9
2024-01-28T04:42:57.765Z,-1.9
2024-01-28T04:44:57.781Z,-2
2024-01-28T04:46:57.522Z,-1.7
2024-01-28T04:48:58.467Z,-1.7
2024-01-28T04:50:58.478Z,-1.8
2024-01-28T04:52:57.525Z,-2.3
2024-01-28T04:54:57.776Z,-2.2
2024-01-28T04:56:57.746Z,-2.2
2024-01-28T04:58:57.993Z,-1.9
2024-01-28T05:00:57.819Z,-1.9
2024-01-28T05:02:58.366Z,-1.7
2024-01-28T05:04:57.970Z,-1.9
2024-01-28T05:06:57.728Z,-1.8
2024-01-28T05:10:57.514Z,-2
2024-01-28T05:12:57.812Z,-2
2024-01-28T05:14:57.793Z,-1.7
2024-01-28T05:16:57.985Z,-1.6
2024-01-28T05:18:57.966Z,-1.6
2024-01-28T05:20:57.756Z,-1.6
2024-01-28T05:22:57.515Z,-1.6
2024-01-28T05:24:58.266Z,-1.7
2024-01-28T05:26:57.780Z,-1.7
2024-01-28T05:28:57.508Z,-1.8
2024-01-28T05:30:57.766Z,-1.9
2024-01-28T05:32:57.758Z,-1.8
2024-01-28T05:34:57.626Z,-1.8
2024-01-28T05:36:57.737Z,-2
2024-01-28T05:38:58.220Z,-1.9
2024-01-28T05:42:58.242Z,-1.8
2024-01-28T05:44:57.768Z,-2
2024-01-28T05:46:57.615Z,-1.7
2024-01-28T05:48:57.831Z,-1.7
2024-01-28T05:50:59.594Z,-1.8
2024-01-28T05:52:58.908Z,-1.7
2024-01-28T05:54:58.866Z,-1.6
2024-01-28T05:56:59.101Z,-1.8
2024-01-28T05:58:58.643Z,-1.7
2024-01-28T06:03:00.616Z,-1.8
2024-01-28T06:05:00.348Z,-1.9
2024-01-28T06:07:00.196Z,-1.8
2024-01-28T06:08:58.256Z,-1.8
2024-01-28T06:10:59.122Z,-2
2024-01-28T06:13:00.588Z,-2
2024-01-28T06:16:58.031Z,-2
2024-01-28T06:19:00.278Z,-2
2024-01-28T06:21:00.309Z,-2
2024-01-28T06:22:59.298Z,-2
2024-01-28T06:25:00.783Z,-2.1
2024-01-28T06:27:00.464Z,-2.1
2024-01-28T06:32:59.513Z,-2.1
2024-01-28T06:34:58.701Z,-2
2024-01-28T06:36:58.219Z,-2
2024-01-28T06:38:59.911Z,-2.2
2024-01-28T06:40:58.202Z,-2.2
2024-01-28T06:43:00.390Z,-2.2
2024-01-28T06:44:59.950Z,-2.2
2024-01-28T06:46:59.028Z,-2.1
2024-01-28T06:49:00.834Z,-2.2
2024-01-28T06:50:58.268Z,-2.4
2024-01-28T06:52:59.793Z,-2.5
2024-01-28T06:55:00.128Z,-2.2
2024-01-28T06:57:00.897Z,-2.4
2024-01-28T06:58:59.681Z,-2.2
2024-01-28T07:00:59.210Z,-2.3
2024-01-28T07:02:59.698Z,-2.2
2024-01-28T07:04:58.073Z,-2.3
2024-01-28T07:07:00.663Z,-2.1
2024-01-28T07:08:59.610Z,-2
2024-01-28T07:10:59.688Z,-1.8
2024-01-28T07:12:59.503Z,-1.9
2024-01-28T07:14:59.948Z,-1.6
2024-01-28T07:16:59.733Z,-1.6
2024-01-28T07:18:59.885Z,-1.7
2024-01-28T07:21:00.081Z,-1.6
2024-01-28T07:22:58.201Z,-1.6
2024-01-28T07:25:00.103Z,-1.5
2024-01-28T07:26:58.706Z,-1.4
2024-01-28T07:29:00.077Z,-1.4
2024-01-28T07:31:00.242Z,-1.3
2024-01-28T07:33:00.090Z,-1.4
2024-01-28T07:34:59.656Z,-1.2
2024-01-28T07:37:00.062Z,-1.3
2024-01-28T07:38:59.042Z,-1.4
2024-01-28T07:40:59.686Z,-1.2
2024-01-28T07:42:59.026Z,-1
2024-01-28T07:44:59.568Z,-1.1
2024-01-28T07:46:59.627Z,-0.9
2024-01-28T07:48:59.631Z,-1
2024-01-28T07:51:00.204Z,-0.8
2024-01-28T07:52:58.372Z,-0.7
2024-01-28T07:54:59.868Z,-0.8
2024-01-28T07:56:59.855Z,-0.8
2024-01-28T07:58:59.598Z,-0.7
2024-01-28T08:04:58.901Z,-0.5
2024-01-28T08:07:00.772Z,-0.5
2024-01-28T08:08:59.885Z,-0.3
2024-01-28T08:10:59.189Z,-0.4
2024-01-28T08:13:00.005Z,-0.5
2024-01-28T08:15:00.060Z,-0.4
2024-01-28T08:16:58.769Z,-0.2
2024-01-28T08:19:00.272Z,-0.4
2024-01-28T08:20:59.808Z,-0.4
2024-01-28T08:22:59.575Z,-0.3
2024-01-28T08:24:59.986Z,-0.1
2024-01-28T08:26:59.915Z,1.3
2024-01-28T08:28:59.076Z,2
2024-01-28T08:30:58.914Z,1.9
2024-01-28T08:33:00.513Z,2.1
2024-01-28T08:34:59.618Z,2.1
2024-01-28T08:36:59.865Z,2.2
2024-01-28T08:38:59.581Z,2.3
2024-01-28T08:40:58.298Z,2.4
2024-01-28T08:43:00.132Z,2.3
2024-01-28T08:45:00.177Z,2.3
2024-01-28T08:46:57.990Z,2.5
2024-01-28T08:48:59.696Z,2.8
2024-01-28T08:50:59.177Z,2.7
2024-01-28T08:52:59.852Z,2.5
2024-01-28T08:55:00.308Z,2.6
2024-01-28T08:58:59.145Z,2.6
2024-01-28T09:00:59.945Z,2.7
2024-01-28T09:02:58.425Z,3.2
2024-01-28T09:05:00.273Z,3.1
2024-01-28T09:07:00.137Z,3.4
2024-01-28T09:08:59.162Z,3.6
2024-01-28T09:10:59.702Z,3.7
2024-01-28T09:13:00.071Z,3.9
2024-01-28T09:14:43.627Z,3.8
2024-01-28T09:16:05.515Z,4
2024-01-28T09:18:05.752Z,4.1
2024-01-28T09:20:06.222Z,4
2024-01-28T09:22:05.496Z,3.9
2024-01-28T09:24:05.724Z,3.9
2024-01-28T09:26:05.755Z,3.9
2024-01-28T09:28:05.488Z,3.7
2024-01-28T09:30:05.743Z,4
2024-01-28T09:32:06.499Z,4.2
2024-01-28T09:36:05.717Z,3.9
2024-01-28T09:40:05.513Z,4
2024-01-28T09:42:05.736Z,4.1
2024-01-28T09:44:06.611Z,4.3
2024-01-28T09:46:05.842Z,4.3
2024-01-28T09:48:05.735Z,4.3
2024-01-28T09:50:05.962Z,4.4
2024-01-28T09:52:05.478Z,4.5
2024-01-28T09:54:05.708Z,4.3
2024-01-28T09:56:05.763Z,4.5
2024-01-28T09:58:05.517Z,4.7
2024-01-28T10:00:05.721Z,4.9
2024-01-28T10:02:05.767Z,5
2024-01-28T10:04:05.587Z,5.1
2024-01-28T10:06:06.174Z,5
2024-01-28T10:08:05.872Z,5.1
2024-01-28T10:10:05.487Z,5.2
2024-01-28T10:12:05.713Z,5.2
2024-01-28T10:14:09.971Z,5.2
2024-01-28T10:16:05.503Z,5.3
2024-01-28T10:18:05.749Z,4.9
2024-01-28T10:20:05.834Z,5
2024-01-28T10:22:05.485Z,5
2024-01-28T10:24:05.704Z,5
2024-01-28T10:28:05.489Z,4.8
2024-01-28T10:30:05.738Z,4.8
2024-01-28T10:32:06.491Z,4.6
2024-01-28T10:34:05.641Z,4.9
2024-01-28T10:36:05.812Z,4.8
2024-01-28T10:38:06.394Z,4.9
2024-01-28T10:40:06.638Z,4.7
2024-01-28T10:42:05.958Z,5
2024-01-28T10:44:06.002Z,5.2
2024-01-28T10:46:05.806Z,5.4
2024-01-28T10:48:06.011Z,5.5
2024-01-28T10:50:06.490Z,5.4
2024-01-28T10:54:06.058Z,5.3
2024-01-28T10:58:05.856Z,5.1
2024-01-28T11:00:07.094Z,5.3
2024-01-28T11:04:06.412Z,5.2
2024-01-28T11:06:06.537Z,5.3
2024-01-28T11:08:05.916Z,5.3
2024-01-28T11:10:06.745Z,5.4
2024-01-28T11:12:06.409Z,5.5
2024-01-28T11:14:07.882Z,5.5
2024-01-28T11:16:05.540Z,5.5
2024-01-28T11:18:07.100Z,5.5
2024-01-28T11:20:06.414Z,5.6
2024-01-28T11:22:06.136Z,5.1
2024-01-28T11:24:06.650Z,5.1
2024-01-28T11:26:06.379Z,5.4
2024-01-28T11:28:06.219Z,5.4
2024-01-28T11:30:06.986Z,5.5
2024-01-28T11:32:06.861Z,5.5
2024-01-28T11:34:07.108Z,5.2
2024-01-28T11:36:06.390Z,5.2
2024-01-28T11:38:06.225Z,5.2
2024-01-28T11:40:06.516Z,5.2
2024-01-28T11:46:06.533Z,5.3
2024-01-28T11:48:06.135Z,5.3
2024-01-28T11:52:05.851Z,5.4
2024-01-28T11:54:07.833Z,5.4
2024-01-28T11:56:07.239Z,5.6
2024-01-28T11:58:06.891Z,5.7
2024-01-28T12:00:07.588Z,5.7
2024-01-28T12:02:07.225Z,5.9
2024-01-28T12:04:06.540Z,6
2024-01-28T12:06:06.877Z,6
2024-01-28T12:08:08.133Z,6
2024-01-28T12:10:08.450Z,6.1
2024-01-28T12:12:07.272Z,6.2
2024-01-28T12:14:07.509Z,6.2
2024-01-28T12:16:07.216Z,6.2
2024-01-28T12:18:08.524Z,6.2
2024-01-28T12:20:08.081Z,6.2
2024-01-28T12:22:07.068Z,6.2
2024-01-28T12:24:08.661Z,6.2
2024-01-28T12:26:08.468Z,6.2
2024-01-28T12:28:06.592Z,6.3
2024-01-28T12:30:08.655Z,6.3
2024-01-28T12:32:08.432Z,6.3
2024-01-28T12:34:08.043Z,6.2
2024-01-28T12:36:07.706Z,6.3
2024-01-28T12:38:08.074Z,6.3
2024-01-28T12:40:06.896Z,6.4
2024-01-28T12:46:07.415Z,6.4
2024-01-28T12:52:07.107Z,6.5
2024-01-28T12:56:08.632Z,6.5
2024-01-28T12:58:07.124Z,6.4
2024-01-28T13:00:08.581Z,6.5
2024-01-28T13:02:07.643Z,6.5
2024-01-28T13:04:07.604Z,6.5
2024-01-28T13:06:08.073Z,6.4
2024-01-28T13:08:07.823Z,6.5
2024-01-28T13:10:07.664Z,6.5
2024-01-28T13:12:08.304Z,6.6
2024-01-28T13:14:08.135Z,6.6
2024-01-28T13:16:08.351Z,6.6
2024-01-28T13:18:20.227Z,6.6
2024-01-28T13:20:07.203Z,6.7
2024-01-28T13:22:07.627Z,6.6
2024-01-28T13:24:08.449Z,6.6
2024-01-28T13:26:07.230Z,6.6
2024-01-28T13:30:08.072Z,6.6
2024-01-28T13:32:06.874Z,6.6
2024-01-28T13:34:07.772Z,6.6
2024-01-28T13:36:08.098Z,6.6
2024-01-28T13:38:07.292Z,6.6
2024-01-28T13:40:07.940Z,6.6
2024-01-28T13:42:08.149Z,6.7
2024-01-28T13:44:07.685Z,6.7
2024-01-28T13:46:07.961Z,6.7
2024-01-28T13:48:08.553Z,6.7
2024-01-28T13:50:07.793Z,6.7
2024-01-28T13:52:06.903Z,6.7
2024-01-28T13:54:07.337Z,6.7
2024-01-28T13:56:08.308Z,6.7
2024-01-28T13:58:07.757Z,6.7
2024-01-28T14:00:08.735Z,6.7
2024-01-28T14:02:07.964Z,6.7
2024-01-28T14:04:08.173Z,6.7
2024-01-28T14:06:07.972Z,6.7
2024-01-28T14:08:08.128Z,6.7
2024-01-28T14:10:08.276Z,6.7
2024-01-28T14:12:08.678Z,6.6
2024-01-28T14:14:06.184Z,6.6
2024-01-28T14:16:08.262Z,6.6
2024-01-28T14:18:07.131Z,6.6
2024-01-28T14:20:07.366Z,6.6
2024-01-28T14:22:08.148Z,6.6
2024-01-28T14:24:08.342Z,6.6
2024-01-28T14:26:06.967Z,6.6
2024-01-28T14:28:08.388Z,6.6
2024-01-28T14:30:05.784Z,6.6
2024-01-28T14:32:08.520Z,6.6
2024-01-28T14:34:09.524Z,6.6
2024-01-28T14:38:08.311Z,6.6
2024-01-28T14:40:09.237Z,6.6
2024-01-28T14:42:09.602Z,6.6
2024-01-28T14:44:07.340Z,6.6
2024-01-28T14:48:09.687Z,6.5
2024-01-28T14:50:06.910Z,6.5
2024-01-28T14:52:09.733Z,6.5
2024-01-28T14:54:09.476Z,6.5
2024-01-28T14:56:08.105Z,6.5
2024-01-28T14:58:09.290Z,6.5
2024-01-28T15:00:09.434Z,6.4
2024-01-28T15:02:08.838Z,6.4
2024-01-28T15:04:09.561Z,6.4
2024-01-28T15:06:09.584Z,6.4
2024-01-28T15:08:08.392Z,6.4
2024-01-28T15:12:10.197Z,6.4
2024-01-28T15:14:08.608Z,6.4
2024-01-28T15:16:09.377Z,6.3
2024-01-28T15:18:09.913Z,6.3
2024-01-28T15:20:07.507Z,6.3
2024-01-28T15:22:09.385Z,6.3
2024-01-28T15:24:07.633Z,6.3
2024-01-28T15:26:07.889Z,6.3
2024-01-28T15:28:15.135Z,6.3
2024-01-28T15:30:09.785Z,6.3
2024-01-28T15:32:08.736Z,6.3
2024-01-28T15:34:10.365Z,6.3
2024-01-28T15:38:07.933Z,6.3
2024-01-28T15:40:09.540Z,5.9
2024-01-28T15:42:09.214Z,5.8
2024-01-28T15:44:08.723Z,5.7
2024-01-28T15:46:09.803Z,5.7
2024-01-28T15:48:09.819Z,5.6
2024-01-28T15:50:09.169Z,5.5
2024-01-28T15:52:09.496Z,5.4
2024-01-28T15:56:07.937Z,5.1
2024-01-28T15:58:10.259Z,5.1
2024-01-28T16:00:10.194Z,5
2024-01-28T16:02:07.966Z,5
2024-01-28T16:04:08.472Z,4.8
2024-01-28T16:06:10.412Z,4.6
2024-01-28T16:08:08.431Z,4.7
2024-01-28T16:10:09.726Z,4.5
2024-01-28T16:12:10.077Z,4.4
2024-01-28T16:14:07.552Z,4.2
2024-01-28T16:16:10.307Z,4.1
2024-01-28T16:20:09.877Z,4.2
2024-01-28T16:24:09.780Z,4.3
2024-01-28T16:26:09.240Z,4.2
2024-01-28T16:28:10.403Z,4.1
2024-01-28T16:30:10.940Z,4
2024-01-28T16:32:09.412Z,4
2024-01-28T16:34:10.272Z,4.1
2024-01-28T16:36:10.548Z,4
2024-01-28T16:38:08.352Z,4.1
2024-01-28T16:40:11.051Z,4.1
2024-01-28T16:42:10.178Z,4.1
2024-01-28T16:44:08.576Z,4.1
2024-01-28T16:46:10.691Z,3.9
2024-01-28T16:48:08.785Z,4
2024-01-28T16:50:09.974Z,3.9
2024-01-28T16:52:10.702Z,3.7
2024-01-28T16:54:08.338Z,3.8
2024-01-28T16:56:05.550Z,3.8
2024-01-28T16:58:08.012Z,4
2024-01-28T17:00:07.995Z,4
2024-01-28T17:02:05.582Z,4
2024-01-28T17:04:05.887Z,3.9
2024-01-28T17:06:05.880Z,3.7
2024-01-28T17:08:06.356Z,3.8
2024-01-28T17:10:06.145Z,3.7
2024-01-28T17:12:06.121Z,3.7
2024-01-28T17:14:05.888Z,3.6
2024-01-28T17:16:06.282Z,3.4
2024-01-28T17:18:06.229Z,3.4
2024-01-28T17:20:06.048Z,3.4
2024-01-28T17:22:06.296Z,3.3
2024-01-28T17:24:05.808Z,3.3
2024-01-28T17:26:05.656Z,3.5
2024-01-28T17:28:06.577Z,3.5
2024-01-28T17:30:05.864Z,3.3
2024-01-28T17:32:05.562Z,3.3
2024-01-28T17:34:06.608Z,3.3
2024-01-28T17:36:05.746Z,3.2
2024-01-28T17:38:05.604Z,3.1
2024-01-28T17:40:05.947Z,3.1
2024-01-28T17:42:06.574Z,3.2
2024-01-28T17:46:06.052Z,3.2
2024-01-28T17:48:05.858Z,3.1
2024-01-28T17:50:06.132Z,2.8
2024-01-28T17:52:05.824Z,2.8
2024-01-28T17:54:05.761Z,2.8
2024-01-28T17:56:05.563Z,2.8
2024-01-28T17:58:06.166Z,2.8
2024-01-28T18:00:06.512Z,2.8
2024-01-28T18:02:06.024Z,2.9
2024-01-28T18:04:05.882Z,2.7
2024-01-28T18:06:05.772Z,2.7
2024-01-28T18:08:05.584Z,2.5
2024-01-28T18:10:05.822Z,2.6
2024-01-28T18:12:05.767Z,2.4
2024-01-28T18:14:05.553Z,2.4
2024-01-28T18:16:05.822Z,2.5
2024-01-28T18:18:05.806Z,2.2
2024-01-28T18:20:06.023Z,2.2
2024-01-28T18:22:05.798Z,2.2
2024-01-28T18:24:05.760Z,2
2024-01-28T18:26:05.554Z,2.1
2024-01-28T18:28:05.830Z,2.1
2024-01-28T18:30:06.220Z,1.9
2024-01-28T18:32:05.595Z,1.9
2024-01-28T18:36:05.767Z,2.1
2024-01-28T18:40:05.822Z,2.2
2024-01-28T18:42:05.765Z,2
2024-01-28T18:44:05.670Z,1.7
2024-01-28T18:46:05.829Z,1.8
2024-01-28T18:48:05.808Z,1.7
2024-01-28T18:50:05.722Z,1.9
2024-01-28T18:52:05.816Z,1.9
2024-01-28T18:54:05.768Z,1.6
2024-01-28T18:56:06.010Z,1.8
2024-01-28T18:58:05.861Z,1.7
2024-01-28T19:02:05.615Z,1.7
2024-01-28T19:04:06.291Z,1.7
2024-01-28T19:06:05.864Z,1.7
2024-01-28T19:08:05.575Z,1.8
2024-01-28T19:12:06.543Z,1.6
2024-01-28T19:14:05.579Z,1.6
2024-01-28T19:16:05.810Z,1.8
2024-01-28T19:18:05.841Z,1.5
2024-01-28T19:20:05.622Z,1.6
2024-01-28T19:22:05.842Z,1.7
2024-01-28T19:26:05.580Z,1.6
2024-01-28T19:28:06.739Z,1.7
2024-01-28T19:30:05.745Z,1.6
2024-01-28T19:32:05.606Z,1.7
2024-01-28T19:34:05.880Z,1.6
2024-01-28T19:36:05.849Z,1.6
2024-01-28T19:38:05.557Z,1.6
2024-01-28T19:40:05.859Z,1.5
2024-01-28T19:42:05.778Z,1.7
2024-01-28T19:48:05.825Z,1.5
2024-01-28T19:50:05.648Z,1.7
2024-01-28T19:52:05.818Z,1.5
2024-01-28T19:54:05.782Z,1.6
2024-01-28T19:56:05.575Z,1.6
2024-01-28T19:58:05.826Z,1.6
2024-01-28T20:04:05.916Z,1.5
2024-01-28T20:06:10.086Z,1.6
2024-01-28T20:08:05.946Z,1.7
2024-01-28T20:10:05.830Z,1.2
2024-01-28T20:12:05.807Z,1.2
2024-01-28T20:16:05.853Z,0.8
2024-01-28T20:18:05.828Z,0.9
2024-01-28T20:20:05.635Z,0.8
2024-01-28T20:22:05.899Z,1
2024-01-28T20:24:05.791Z,1
2024-01-28T20:26:05.584Z,1.1
2024-01-28T20:28:06.558Z,0.9
2024-01-28T20:32:05.540Z,0.7
2024-01-28T20:34:05.862Z,0.8
2024-01-28T20:36:05.796Z,0.9
2024-01-28T20:38:05.594Z,0.9
2024-01-28T20:40:05.869Z,1
2024-01-28T20:42:05.812Z,0.6
2024-01-28T20:45:59.136Z,0.7
2024-01-28T20:47:36.686Z,0.7
2024-01-28T20:49:36.554Z,0.9
2024-01-28T20:51:36.340Z,0.9
2024-01-28T20:53:36.467Z,0.8
2024-01-28T20:55:36.073Z,0.9
2024-01-28T20:57:36.416Z,0.9
2024-01-28T20:59:36.658Z,0.7
2024-01-28T21:01:36.101Z,0.9
2024-01-28T21:03:36.392Z,0.6
2024-01-28T21:05:36.874Z,0.7
2024-01-28T21:07:36.073Z,0.6
2024-01-28T21:09:36.476Z,1
2024-01-28T21:11:36.325Z,1.1
2024-01-28T21:13:36.881Z,0.9
2024-01-28T21:16:28.501Z,0.8
2024-01-28T21:18:28.564Z,0.8
2024-01-28T21:20:28.252Z,0.6
2024-01-28T21:22:34.261Z,0.8
2024-01-28T21:24:34.609Z,0.8
2024-01-28T21:26:33.886Z,0.8
2024-01-28T21:28:34.268Z,0.6
2024-01-28T21:30:34.177Z,0.8
2024-01-28T21:32:34.007Z,0.7
2024-01-28T21:34:34.704Z,0.8
2024-01-28T21:36:34.146Z,0.8
2024-01-28T21:38:33.915Z,0.9
2024-01-28T21:40:34.661Z,0.8
2024-01-28T21:42:34.901Z,0.9
2024-01-28T21:44:33.995Z,0.7
2024-01-28T21:46:31.250Z,0.7
2024-01-28T21:48:31.220Z,0.8
2024-01-28T21:50:31.098Z,0.4
2024-01-28T21:52:31.235Z,0.6
2024-01-28T21:54:31.309Z,0.6
2024-01-28T21:56:34.222Z,1.3
2024-01-28T21:58:34.442Z,0.8
2024-01-28T21:59:52.093Z,0.8
2024-01-28T22:01:51.540Z,0.9
2024-01-28T22:03:49.677Z,0.7
2024-01-28T22:05:42.708Z,0.9
2024-01-28T22:07:05.761Z,1
2024-01-28T22:09:06.060Z,1
2024-01-28T22:11:06.430Z,0.9
2024-01-28T22:13:05.502Z,0.8
2024-01-28T22:15:06.591Z,0.5
2024-01-28T22:17:06.151Z,0.6
2024-01-28T22:19:06.094Z,0.6
2024-01-28T22:21:05.743Z,0.5
2024-01-28T22:23:06.061Z,0.6
2024-01-28T22:25:06.322Z,0.5
2024-01-28T22:27:05.722Z,0.3
2024-01-28T22:29:06.361Z,0.3
2024-01-28T22:31:05.608Z,0.2
2024-01-28T22:35:05.757Z,0.1
2024-01-28T22:37:05.545Z,-0.1
2024-01-28T22:39:35.790Z,0
2024-01-28T22:41:36.171Z,0.1
2024-01-28T22:43:35.893Z,0.2
2024-01-28T22:45:36.428Z,0.2
2024-01-28T22:47:36.882Z,0.1
2024-01-28T22:49:35.667Z,-0.1
2024-01-28T22:51:35.786Z,0.3
2024-01-28T22:53:36.489Z,0.2
2024-01-28T22:54:51.778Z,0.2
2024-01-28T22:55:53.207Z,0.2
2024-01-28T22:57:52.789Z,0.4
2024-01-28T22:59:53.172Z,0.4
2024-01-28T23:01:53.015Z,0.3
2024-01-28T23:03:53.116Z,0
2024-01-28T23:05:52.772Z,-0.3
2024-01-28T23:07:52.517Z,0
2024-01-28T23:09:52.748Z,0.2
2024-01-28T23:11:53.031Z,0.4
2024-01-28T23:13:52.498Z,0.2
2024-01-28T23:15:52.763Z,0.1
2024-01-28T23:17:52.766Z,0
2024-01-28T23:19:52.594Z,-0.1
2024-01-28T23:21:52.769Z,0.1
2024-01-28T23:23:52.836Z,-0.1
2024-01-28T23:25:52.501Z,0
2024-01-28T23:27:53.217Z,0
2024-01-28T23:29:52.751Z,0
2024-01-28T23:31:52.569Z,0.2
2024-01-28T23:33:53.520Z,-0.1
2024-01-28T23:35:52.774Z,-0.2
2024-01-28T23:39:52.991Z,-0.1
2024-01-28T23:41:53.195Z,-0.1
2024-01-28T23:43:52.702Z,-0.2
2024-01-28T23:45:52.835Z,-0.3
2024-01-28T23:47:52.760Z,-0.1
2024-01-28T23:51:53.256Z,-0.2
2024-01-28T23:53:52.809Z,-0.3
2024-01-28T23:57:53.797Z,-0.1
2024-01-28T23:59:52.760Z,-0.2
